createdAt,value
2019-02-24T02:48:23.726Z,37.89
2019-02-24T02:50:53.707Z,37.51
2019-02-24T03:08:18.742Z,38.79
2019-02-24T03:18:03.185Z,37.32
2019-02-24T03:20:33.197Z,35.77
2019-02-24T03:45:40.186Z,39.57
2019-02-24T03:48:10.096Z,39.09
2019-02-24T03:50:40.084Z,40.00
2019-02-24T03:53:11.278Z,40.12
2019-02-24T03:55:41.446Z,40.56
2019-02-24T04:17:17.184Z,39.30
2019-02-24T04:34:42.957Z,42.56
2019-02-24T04:44:44.256Z,45.29
2019-02-24T04:47:14.150Z,46.31
2019-02-24T04:49:44.075Z,46.96
2019-02-24T04:55:58.883Z,47.98
2019-02-24T04:58:29.100Z,47.54
2019-02-24T05:00:59.133Z,49.07
2019-02-24T05:03:29.278Z,50.18
2019-02-24T05:05:59.162Z,46.23
2019-02-24T05:08:29.039Z,45.26
2019-02-24T05:14:50.142Z,47.42
2019-02-24T05:17:20.411Z,44.66
2019-02-24T05:19:50.325Z,43.47
2019-02-24T05:26:04.892Z,45.15
2019-02-24T05:28:34.774Z,46.91
2019-02-24T05:46:01.653Z,52.28
2019-02-24T05:48:33.594Z,53.56
2019-02-24T05:51:03.472Z,53.84
2019-02-24T05:53:33.596Z,54.17
2019-02-24T05:56:03.674Z,54.84
2019-02-24T05:58:34.421Z,54.13
2019-02-24T06:04:48.814Z,54.11
2019-02-24T06:07:18.765Z,55.38
2019-02-24T06:16:10.848Z,54.28
2019-02-24T06:18:40.795Z,55.97
2019-02-24T06:25:14.218Z,54.56
2019-02-24T06:35:04.377Z,47.38
2019-02-24T06:51:45.364Z,46.82
2019-02-24T07:01:48.818Z,41.14
2019-02-24T07:04:18.714Z,39.52
2019-02-24T07:20:56.804Z,33.20
2019-02-24T07:23:26.800Z,32.13
2019-02-24T07:25:56.683Z,30.49
2019-02-24T07:28:27.339Z,29.23
2019-02-24T07:34:48.729Z,28.14
2019-02-24T07:37:18.619Z,27.58
2019-02-24T07:39:48.515Z,27.08
2019-02-24T07:42:18.853Z,26.13
2019-02-24T07:44:48.749Z,25.73
2019-02-24T07:47:18.661Z,27.17
2019-02-24T07:49:48.558Z,27.29
2019-02-24T07:52:18.480Z,25.64
2019-02-24T08:16:56.417Z,32.39
2019-02-24T08:19:26.521Z,35.15
2019-02-24T08:21:56.375Z,32.81
2019-02-24T08:24:26.278Z,29.25
2019-02-24T08:26:56.729Z,28.77
2019-02-24T08:29:27.454Z,26.89
2019-02-24T08:31:57.543Z,26.02
2019-02-24T08:38:18.212Z,27.15
2019-02-24T08:40:48.116Z,25.00
2019-02-24T08:50:56.171Z,25.86
2019-02-24T08:53:26.100Z,24.34
2019-02-24T09:02:29.762Z,34.60
2019-02-24T09:12:19.493Z,36.48
2019-02-24T09:14:49.475Z,35.95
2019-02-24T09:17:19.353Z,35.63
2019-02-24T09:23:39.765Z,34.64
2019-02-24T09:26:09.751Z,28.98
2019-02-24T09:28:39.780Z,26.66
2019-02-24T09:31:09.699Z,26.37
2019-02-24T09:33:40.235Z,23.13
2019-02-24T09:36:10.144Z,21.87
2019-02-24T09:38:40.026Z,23.94
2019-02-24T09:45:01.042Z,19.93
2019-02-24T09:47:30.920Z,23.24
2019-02-24T09:57:38.779Z,18.21
2019-02-24T10:00:10.303Z,17.40
2019-02-24T10:02:40.301Z,16.43
2019-02-24T10:05:10.581Z,18.75
2019-02-24T10:38:24.040Z,16.12
2019-02-24T10:40:54.012Z,16.00
2019-02-24T10:51:22.141Z,11.40
2019-02-24T10:53:52.146Z,10.19
2019-02-24T11:10:04.532Z,13.67
2019-02-24T11:12:34.473Z,13.49
2019-02-24T11:27:23.217Z,18.35
2019-02-24T11:29:53.336Z,21.85
2019-02-24T11:32:23.539Z,22.01
2019-02-24T11:34:53.464Z,24.61
2019-02-24T11:37:23.377Z,24.55
2019-02-24T11:39:53.523Z,25.28
2019-02-24T11:42:23.512Z,25.04
2019-02-24T11:44:53.424Z,23.98
2019-02-24T11:47:23.367Z,24.62
2019-02-24T11:49:53.294Z,24.16
2019-02-24T11:52:23.292Z,24.33
2019-02-24T11:54:53.234Z,23.35
2019-02-24T11:57:23.175Z,23.14
2019-02-24T11:59:53.094Z,23.14
2019-02-24T12:02:23.021Z,23.28
2019-02-24T12:04:53.908Z,23.21
2019-02-24T12:07:23.855Z,23.32
2019-02-24T12:09:53.903Z,23.60
2019-02-24T12:12:24.372Z,23.00
2019-02-24T12:14:54.363Z,23.18
2019-02-24T12:17:24.246Z,22.93
2019-02-24T12:19:54.874Z,23.31
2019-02-24T12:22:25.201Z,23.44
2019-02-24T12:24:55.121Z,23.46
2019-02-24T12:31:16.299Z,22.77
2019-02-24T12:33:46.211Z,23.04
2019-02-24T12:36:16.095Z,22.43
2019-02-24T12:38:45.987Z,22.69
2019-02-24T12:45:00.815Z,22.04
2019-02-24T12:47:38.504Z,22.66
2019-02-24T12:50:09.516Z,21.85
2019-02-24T12:52:39.460Z,23.72
2019-02-24T12:55:10.202Z,22.46
2019-02-24T12:57:40.132Z,21.93
2019-02-24T13:06:30.249Z,24.11
2019-02-24T13:16:19.417Z,22.16
2019-02-24T13:26:08.127Z,20.47
2019-02-24T13:35:57.448Z,19.97
2019-02-24T13:45:46.786Z,19.49
2019-02-24T13:48:16.660Z,20.27
2019-02-24T13:50:46.561Z,22.07
2019-02-24T13:53:16.420Z,20.81
2019-02-24T13:55:46.394Z,20.10
2019-02-24T14:11:57.754Z,20.20
2019-02-24T14:14:27.863Z,20.15
2019-02-24T14:16:57.756Z,19.68
2019-02-24T14:30:56.475Z,21.64
2019-02-24T14:33:26.370Z,19.84
2019-02-24T15:11:37.776Z,20.76
2019-02-24T15:21:20.929Z,20.23
2019-02-24T15:23:50.841Z,23.77
2019-02-24T15:40:21.693Z,20.16
2019-02-24T15:57:49.791Z,21.77
2019-02-24T16:00:19.918Z,21.50
2019-02-24T16:40:32.271Z,21.53
2019-02-24T16:58:09.862Z,22.73
2019-02-24T17:00:40.318Z,22.95
2019-02-24T17:10:24.901Z,27.42
2019-02-24T17:20:10.466Z,23.57
2019-02-24T17:22:40.521Z,22.88
2019-02-24T17:25:11.039Z,22.77
2019-02-24T17:27:40.964Z,22.97
2019-02-24T17:30:12.353Z,23.45
2019-02-24T17:32:42.342Z,23.32
2019-02-24T17:35:12.900Z,26.23
2019-02-24T17:37:43.177Z,23.58
2019-02-24T18:09:21.815Z,25.42
2019-02-24T18:11:51.809Z,25.32
2019-02-24T18:21:41.903Z,28.38
2019-02-24T18:24:11.877Z,25.92
2019-02-24T18:26:41.803Z,26.24
2019-02-24T18:29:12.538Z,26.22
2019-02-24T18:31:42.476Z,27.30
2019-02-24T18:34:12.447Z,26.86
2019-02-24T18:36:42.441Z,28.09
2019-02-24T18:39:12.315Z,29.43
2019-02-24T18:41:42.202Z,31.25
2019-02-24T18:44:12.091Z,30.51
2019-02-24T18:46:41.992Z,30.12
2019-02-24T18:49:12.573Z,29.57
2019-02-24T18:51:42.501Z,26.99
2019-02-24T19:07:51.638Z,23.56
2019-02-24T19:10:21.704Z,23.24
2019-02-24T19:19:14.140Z,24.84
2019-02-24T19:36:58.899Z,26.38
2019-02-24T20:07:11.130Z,27.40
2019-02-24T20:26:54.622Z,32.36
2019-02-24T20:29:24.698Z,35.58
2019-02-24T20:31:54.615Z,30.61
2019-02-24T20:34:25.808Z,31.70
2019-02-24T20:36:55.806Z,30.93
2019-02-24T20:39:25.685Z,35.84
2019-02-24T20:41:55.574Z,35.02
2019-02-24T20:44:25.842Z,31.61
2019-02-24T20:46:55.753Z,36.78
2019-02-24T21:08:25.420Z,36.59
2019-02-24T21:10:55.285Z,33.67
2019-02-24T21:13:25.206Z,37.64
2019-02-24T21:15:55.106Z,35.78
2019-02-24T21:18:25.003Z,36.08
2019-02-24T21:20:55.236Z,32.87
2019-02-24T21:23:25.130Z,33.28
2019-02-24T21:29:45.938Z,32.42
2019-02-24T21:32:15.837Z,34.74
2019-02-24T21:34:45.724Z,40.17
2019-02-24T21:48:44.429Z,34.44
2019-02-24T21:51:14.353Z,34.71
2019-02-24T21:53:44.243Z,35.77
2019-02-24T22:02:22.051Z,36.04
2019-02-24T22:04:52.299Z,36.07
2019-02-24T22:07:22.187Z,36.55
2019-02-24T22:09:52.167Z,40.43
2019-02-24T22:12:22.066Z,38.77
2019-02-24T22:18:43.275Z,40.01
2019-02-24T22:21:13.190Z,38.41
2019-02-24T22:23:43.102Z,39.07
2019-02-24T22:26:13.036Z,39.03
2019-02-24T22:28:42.940Z,39.84
2019-02-24T22:42:42.091Z,41.50
2019-02-24T22:45:16.589Z,41.90
2019-02-24T22:47:46.135Z,41.57
2019-02-24T22:54:07.180Z,42.64
2019-02-24T23:11:53.266Z,44.42
2019-02-24T23:14:24.123Z,45.92
2019-02-24T23:24:13.552Z,47.36
2019-02-24T23:26:43.914Z,47.25
2019-02-24T23:29:13.776Z,47.69
2019-02-24T23:35:35.518Z,47.69
2019-02-24T23:38:06.819Z,47.60
2019-02-24T23:40:36.796Z,47.37
2019-02-24T23:43:07.375Z,48.19
2019-02-24T23:45:37.618Z,47.51
2019-02-24T23:48:07.843Z,46.41
2019-02-24T23:50:37.987Z,47.22
2019-02-24T23:59:15.884Z,47.75
